Time;durP1;ratioP1;P1;durP2;ratioP2;P2;SDS_P1;SDS_P2;PMS_P1;PMS_P2;Temp;Humidity;BMP_temperature;BMP_pressure;BME280_temperature;BME280_humidity;BME280_pressure;Samples;Min_cycle;Max_cycle;Signal;HPM_P1;HPM_P2
2023/03/17 00:00:20;;;;;;;76.00;50.88;;;15.90;69.60;;;;;;4989210;28;92076;-69
2023/03/17 00:02:48;;;;;;;73.38;50.42;;;15.90;69.70;;;;;;4973652;28;94116;-68
2023/03/17 00:05:21;;;;;;;74.50;50.80;;;15.80;69.80;;;;;;4992558;27;89811;-68
2023/03/17 00:07:47;;;;;;;74.63;50.97;;;15.80;69.90;;;;;;4985544;28;89806;-69
2023/03/17 00:10:16;;;;;;;74.70;51.10;;;15.80;69.60;;;;;;4996578;28;89491;-68
2023/03/17 00:12:42;;;;;;;74.43;51.00;;;15.80;69.70;;;;;;4988211;28;92519;-68
2023/03/17 00:15:09;;;;;;;75.90;50.92;;;15.80;69.80;;;;;;4991215;28;90265;-69
2023/03/17 00:17:35;;;;;;;73.22;51.03;;;15.80;69.80;;;;;;4986770;28;89544;-68
2023/03/17 00:20:02;;;;;;;72.80;50.47;;;15.70;69.60;;;;;;4990657;28;89771;-69
2023/03/17 00:22:28;;;;;;;74.68;50.85;;;15.80;69.50;;;;;;4980222;28;90920;-69
2023/03/17 00:24:54;;;;;;;74.53;50.70;;;15.70;69.80;;;;;;4989729;28;90208;-68
2023/03/17 00:27:20;;;;;;;73.38;50.75;;;15.70;69.60;;;;;;4995203;28;89775;-68
2023/03/17 00:29:46;;;;;;;73.55;50.78;;;15.70;69.50;;;;;;4993827;28;90267;-69
2023/03/17 00:32:17;;;;;;;73.75;50.78;;;15.70;69.50;;;;;;4981208;28;89683;-69
2023/03/17 00:34:44;;;;;;;73.32;51.05;;;15.70;69.60;;;;;;4989377;28;91189;-69
2023/03/17 00:37:11;;;;;;;72.45;50.38;;;15.70;69.50;;;;;;4991911;28;90826;-68
2023/03/17 00:39:38;;;;;;;74.03;50.85;;;15.70;69.40;;;;;;4987117;28;90310;-68
2023/03/17 00:42:05;;;;;;;73.40;51.13;;;15.70;69.50;;;;;;4982701;28;89851;-68
2023/03/17 00:44:32;;;;;;;73.65;50.53;;;15.60;69.50;;;;;;4991157;28;90327;-68
2023/03/17 00:46:58;;;;;;;73.15;50.83;;;15.60;69.30;;;;;;4991067;28;94026;-68
2023/03/17 00:49:25;;;;;;;73.18;51.10;;;15.60;69.40;;;;;;4986301;28;89707;-68
2023/03/17 00:51:51;;;;;;;74.30;50.83;;;15.60;69.30;;;;;;4978806;28;90064;-68
2023/03/17 00:54:19;;;;;;;74.70;51.40;;;15.60;69.20;;;;;;4984733;28;90878;-68
2023/03/17 00:56:46;;;;;;;74.35;51.10;;;15.60;69.30;;;;;;4984714;28;90163;-69
2023/03/17 00:59:41;;;;;;;72.50;50.50;;;15.60;69.40;;;;;;4984044;28;89883;-68
2023/03/17 01:02:11;;;;;;;75.70;51.17;;;15.60;69.50;;;;;;4978322;28;90914;-69
2023/03/17 01:04:36;;;;;;;73.40;50.72;;;15.60;69.20;;;;;;4982336;28;89806;-69
2023/03/17 01:07:03;;;;;;;73.05;51.03;;;15.60;69.30;;;;;;4977300;28;90897;-68
2023/03/17 01:09:29;;;;;;;72.70;50.58;;;15.60;69.00;;;;;;4991974;28;89424;-68
2023/03/17 01:11:55;;;;;;;73.40;50.72;;;15.60;69.10;;;;;;4980090;28;94801;-68
2023/03/17 01:14:21;;;;;;;74.22;50.85;;;15.60;69.10;;;;;;4982183;28;90786;-69
2023/03/17 01:16:47;;;;;;;73.82;51.30;;;15.50;69.20;;;;;;4987383;28;91996;-69
2023/03/17 01:19:13;;;;;;;72.60;50.70;;;15.60;69.20;;;;;;4982651;28;94218;-69
2023/03/17 01:21:39;;;;;;;72.75;50.78;;;15.60;69.10;;;;;;4980599;28;90592;-68
2023/03/17 01:24:05;;;;;;;74.25;50.65;;;15.60;68.90;;;;;;4982642;28;90344;-68
2023/03/17 01:26:31;;;;;;;72.57;49.95;;;15.50;69.00;;;;;;4984843;28;89439;-69
2023/03/17 01:28:57;;;;;;;73.18;50.72;;;15.50;68.90;;;;;;4988143;28;90979;-68
2023/03/17 01:31:25;;;;;;;73.63;51.08;;;15.50;69.10;;;;;;4983029;28;91349;-68
2023/03/17 01:33:51;;;;;;;72.93;50.60;;;15.50;69.10;;;;;;4989882;28;90061;-68
2023/03/17 01:36:17;;;;;;;73.82;50.83;;;15.50;69.00;;;;;;4982267;28;90752;-69
2023/03/17 01:38:43;;;;;;;72.47;50.97;;;15.50;69.00;;;;;;4982995;28;90941;-68
2023/03/17 01:41:09;;;;;;;73.35;50.65;;;15.50;69.60;;;;;;4988746;28;90899;-68
2023/03/17 01:43:35;;;;;;;73.03;51.00;;;15.50;68.90;;;;;;4987490;28;91565;-68
2023/03/17 01:46:16;;;;;;;73.78;50.67;;;15.50;69.00;;;;;;4975436;28;89965;-68
2023/03/17 01:48:47;;;;;;;72.38;50.20;;;15.50;68.90;;;;;;4988205;28;89508;-68
2023/03/17 01:51:21;;;;;;;73.25;50.85;;;15.50;69.00;;;;;;4978064;28;90390;-68
2023/03/17 01:53:48;;;;;;;72.00;50.45;;;15.40;68.80;;;;;;4981227;28;89915;-67
2023/03/17 01:56:14;;;;;;;73.57;50.83;;;15.40;68.70;;;;;;4983897;28;89511;-69
2023/03/17 01:58:40;;;;;;;72.40;50.50;;;15.40;68.70;;;;;;4988442;27;90224;-68
2023/03/17 02:01:06;;;;;;;72.85;50.47;;;15.40;68.80;;;;;;4980710;28;91120;-68
2023/03/17 02:03:33;;;;;;;72.85;50.30;;;15.40;68.70;;;;;;4992651;28;89766;-69
2023/03/17 02:06:00;;;;;;;72.78;50.80;;;15.40;68.80;;;;;;4981431;28;89914;-69
2023/03/17 02:08:26;;;;;;;71.63;50.28;;;15.40;68.80;;;;;;4980082;28;89888;-68
2023/03/17 02:10:52;;;;;;;71.97;50.58;;;15.40;68.50;;;;;;4980018;28;89523;-69
2023/03/17 02:13:18;;;;;;;72.13;50.55;;;15.30;68.90;;;;;;4981089;28;95484;-68
2023/03/17 02:15:49;;;;;;;72.38;50.30;;;15.40;68.80;;;;;;4986054;28;91484;-69
2023/03/17 02:18:18;;;;;;;71.95;50.17;;;15.40;68.70;;;;;;4984973;28;89265;-68
2023/03/17 02:20:46;;;;;;;72.30;50.90;;;15.40;68.80;;;;;;4982902;28;89974;-68
2023/03/17 02:23:23;;;;;;;71.80;50.55;;;15.40;68.90;;;;;;4986508;28;89996;-68
2023/03/17 02:25:50;;;;;;;71.88;50.08;;;15.40;68.70;;;;;;4986294;27;91013;-68
2023/03/17 02:28:22;;;;;;;72.10;50.63;;;15.30;68.80;;;;;;4981923;28;91357;-68
2023/03/17 02:30:47;;;;;;;72.43;50.28;;;15.30;68.50;;;;;;4986754;28;89335;-69
2023/03/17 02:33:13;;;;;;;71.75;50.45;;;15.30;68.80;;;;;;4991042;28;90026;-69
2023/03/17 02:35:40;;;;;;;72.80;50.92;;;15.30;68.70;;;;;;4984903;28;89774;-69
2023/03/17 02:38:06;;;;;;;72.00;50.60;;;15.30;68.50;;;;;;4983952;28;91453;-68
2023/03/17 02:40:32;;;;;;;72.25;50.42;;;15.30;68.50;;;;;;4989160;28;90034;-68
2023/03/17 02:42:59;;;;;;;71.72;50.47;;;15.30;69.20;;;;;;4992296;28;89809;-68
2023/03/17 02:45:26;;;;;;;72.93;50.30;;;15.30;68.70;;;;;;4986297;28;90054;-68
2023/03/17 02:47:52;;;;;;;71.20;50.13;;;15.30;68.50;;;;;;4977725;28;90629;-69
2023/03/17 02:50:24;;;;;;;72.47;50.90;;;15.30;68.50;;;;;;4982643;28;91579;-68
2023/03/17 02:52:50;;;;;;;71.25;49.92;;;15.20;68.80;;;;;;4983252;28;91502;-69
2023/03/17 02:55:16;;;;;;;71.78;50.50;;;15.20;68.60;;;;;;4973816;28;90174;-69
2023/03/17 02:57:42;;;;;;;72.75;50.78;;;15.20;68.60;;;;;;4983467;28;89911;-68
2023/03/17 03:00:09;;;;;;;72.18;50.08;;;15.20;68.70;;;;;;4990089;28;89926;-68
2023/03/17 03:02:36;;;;;;;71.65;50.35;;;15.20;68.90;;;;;;4980459;28;90548;-68
2023/03/17 03:05:03;;;;;;;71.90;50.42;;;15.20;68.40;;;;;;4978789;28;90131;-69
2023/03/17 03:07:29;;;;;;;71.28;50.50;;;15.20;68.50;;;;;;4976572;28;89312;-68
2023/03/17 03:09:55;;;;;;;71.65;50.28;;;15.30;68.40;;;;;;4983898;28;90703;-68
2023/03/17 03:12:20;;;;;;;72.35;51.05;;;15.20;68.40;;;;;;4982784;28;91971;-68
2023/03/17 03:14:46;;;;;;;72.00;50.70;;;15.20;68.60;;;;;;4976647;28;90653;-69
2023/03/17 03:17:12;;;;;;;71.28;50.28;;;15.20;68.50;;;;;;4991874;28;89824;-68
2023/03/17 03:19:38;;;;;;;73.10;51.03;;;15.10;68.40;;;;;;4977974;28;89819;-68
2023/03/17 03:22:04;;;;;;;70.78;50.03;;;15.10;68.40;;;;;;4979622;28;90142;-68
2023/03/17 03:24:30;;;;;;;72.00;50.50;;;15.10;68.50;;;;;;4982299;28;89907;-68
2023/03/17 03:26:56;;;;;;;70.85;50.15;;;15.10;68.50;;;;;;4990962;28;91669;-68
2023/03/17 03:29:21;;;;;;;72.22;50.05;;;15.10;68.40;;;;;;4976816;28;91249;-68
2023/03/17 03:31:47;;;;;;;71.80;50.17;;;15.10;68.50;;;;;;4986006;28;89438;-68
2023/03/17 03:34:13;;;;;;;72.57;50.42;;;15.10;68.40;;;;;;4992962;28;89341;-69
2023/03/17 03:36:39;;;;;;;72.82;50.47;;;15.00;68.40;;;;;;4987204;28;92208;-68
2023/03/17 03:39:05;;;;;;;72.57;50.58;;;15.10;68.60;;;;;;4984046;28;92568;-68
2023/03/17 03:41:30;;;;;;;71.13;50.00;;;15.10;68.40;;;;;;4996537;28;90992;-68
2023/03/17 03:43:56;;;;;;;71.70;50.40;;;15.10;67.90;;;;;;4997810;28;89788;-68
2023/03/17 03:46:22;;;;;;;70.82;50.20;;;15.10;68.20;;;;;;4983382;28;90439;-68
2023/03/17 03:48:47;;;;;;;70.75;49.85;;;15.10;68.40;;;;;;4997867;27;91556;-68
2023/03/17 03:51:13;;;;;;;70.47;49.92;;;15.10;68.10;;;;;;4985485;28;90080;-69
2023/03/17 03:53:39;;;;;;;70.43;49.88;;;15.00;68.20;;;;;;4993181;28;91471;-69
2023/03/17 03:56:05;;;;;;;70.63;50.20;;;15.00;68.30;;;;;;4988519;28;90504;-69
2023/03/17 03:58:30;;;;;;;71.43;50.58;;;15.00;68.10;;;;;;4980752;28;90225;-68
2023/03/17 04:00:56;;;;;;;71.53;50.33;;;15.00;68.40;;;;;;4991377;28;90873;-68
2023/03/17 04:03:22;;;;;;;70.65;50.10;;;15.00;68.60;;;;;;4982980;28;90663;-69
2023/03/17 04:05:48;;;;;;;72.05;50.70;;;15.00;68.30;;;;;;4982233;28;91430;-71
2023/03/17 04:08:13;;;;;;;70.38;49.97;;;14.90;68.20;;;;;;4989821;28;89769;-68
2023/03/17 04:10:39;;;;;;;71.75;50.58;;;15.00;68.40;;;;;;4985254;28;89864;-69
2023/03/17 04:13:05;;;;;;;70.65;50.03;;;15.00;68.20;;;;;;4983236;28;92220;-68
2023/03/17 04:15:31;;;;;;;70.68;50.30;;;15.00;68.00;;;;;;4980237;28;91452;-68
2023/03/17 04:17:56;;;;;;;71.43;50.17;;;14.90;67.90;;;;;;4986540;28;90158;-68
2023/03/17 04:20:22;;;;;;;70.57;50.33;;;15.00;68.20;;;;;;4982572;28;90206;-69
2023/03/17 04:22:48;;;;;;;71.60;50.15;;;14.90;68.10;;;;;;4987016;28;90099;-68
2023/03/17 04:25:14;;;;;;;71.03;50.38;;;14.90;68.20;;;;;;4998125;28;90079;-68
2023/03/17 04:27:41;;;;;;;70.85;49.95;;;14.90;68.20;;;;;;4976902;28;91914;-69
2023/03/17 04:30:09;;;;;;;71.28;50.60;;;14.80;68.40;;;;;;4979542;28;91008;-68
2023/03/17 04:32:35;;;;;;;72.00;50.50;;;14.90;68.30;;;;;;4978141;28;91629;-68
2023/03/17 04:35:01;;;;;;;69.97;50.03;;;14.90;68.10;;;;;;4986464;28;89487;-68
2023/03/17 04:37:27;;;;;;;70.75;50.50;;;14.90;68.10;;;;;;4990141;28;89408;-68
2023/03/17 04:39:53;;;;;;;71.22;50.60;;;14.80;68.00;;;;;;4986887;28;91024;-69
2023/03/17 04:42:19;;;;;;;70.82;50.60;;;14.80;68.20;;;;;;4974568;28;89780;-69
2023/03/17 04:44:57;;;;;;;70.75;49.78;;;14.80;68.20;;;;;;4988839;28;90196;-68
2023/03/17 04:47:23;;;;;;;71.35;50.70;;;14.80;68.20;;;;;;4979898;28;90980;-68
2023/03/17 04:49:48;;;;;;;70.78;50.22;;;14.80;68.30;;;;;;4985364;28;89464;-68
2023/03/17 04:52:14;;;;;;;72.45;50.30;;;14.80;67.80;;;;;;4984880;28;90811;-68
2023/03/17 04:54:41;;;;;;;71.70;50.22;;;14.80;68.10;;;;;;4974417;28;90000;-68
2023/03/17 04:57:06;;;;;;;70.63;50.22;;;14.80;68.10;;;;;;4970562;28;90297;-68
2023/03/17 04:59:32;;;;;;;71.32;50.15;;;14.70;68.10;;;;;;4974500;28;89887;-68
2023/03/17 05:01:58;;;;;;;74.90;50.38;;;14.70;68.10;;;;;;4982287;28;90031;-68
2023/03/17 05:04:23;;;;;;;70.93;50.45;;;14.70;68.20;;;;;;4982186;28;89906;-69
2023/03/17 05:06:50;;;;;;;71.78;50.33;;;14.70;68.30;;;;;;4974789;28;89847;-68
2023/03/17 05:09:16;;;;;;;71.28;49.88;;;14.70;68.10;;;;;;4982359;28;90376;-68
2023/03/17 05:11:42;;;;;;;72.13;50.35;;;14.70;68.10;;;;;;4982859;28;90979;-68
2023/03/17 05:14:07;;;;;;;74.55;50.42;;;14.70;68.10;;;;;;4980327;28;90726;-69
2023/03/17 05:16:33;;;;;;;70.90;50.28;;;14.70;68.30;;;;;;4984915;28;91945;-68
2023/03/17 05:18:59;;;;;;;71.57;50.47;;;14.70;68.20;;;;;;4983047;28;89928;-69
2023/03/17 05:21:25;;;;;;;71.30;50.97;;;14.70;68.10;;;;;;4977512;28;89404;-69
2023/03/17 05:23:50;;;;;;;70.75;50.05;;;14.70;68.10;;;;;;4981110;28;92557;-69
2023/03/17 05:26:16;;;;;;;70.70;49.83;;;14.70;68.30;;;;;;4978782;28;90192;-69
2023/03/17 05:28:42;;;;;;;75.10;50.33;;;14.60;68.00;;;;;;4985697;28;90785;-68
2023/03/17 05:31:07;;;;;;;70.70;50.10;;;14.60;68.10;;;;;;4980608;28;90534;-70
2023/03/17 05:33:33;;;;;;;71.30;50.55;;;14.60;68.10;;;;;;4984995;28;89256;-68
2023/03/17 05:35:59;;;;;;;70.80;50.17;;;14.60;68.10;;;;;;4983015;28;89330;-69
2023/03/17 05:38:24;;;;;;;71.85;50.20;;;14.60;68.10;;;;;;4982463;28;92083;-67
2023/03/17 05:40:51;;;;;;;72.10;50.58;;;14.60;67.80;;;;;;4969382;28;90780;-68
2023/03/17 05:43:17;;;;;;;72.13;50.38;;;14.70;68.00;;;;;;4976844;28;89713;-69
2023/03/17 05:45:43;;;;;;;72.10;50.28;;;14.70;68.00;;;;;;4973312;28;90398;-68
2023/03/17 05:48:11;;;;;;;71.93;50.28;;;14.70;68.10;;;;;;4977382;28;90284;-68
2023/03/17 05:50:36;;;;;;;70.90;50.17;;;14.60;68.10;;;;;;4976382;28;91519;-68
2023/03/17 05:53:02;;;;;;;71.15;50.67;;;14.60;68.10;;;;;;4980446;27;89512;-69
2023/03/17 05:55:28;;;;;;;72.55;50.15;;;14.60;68.30;;;;;;4987622;28;89988;-68
2023/03/17 05:57:53;;;;;;;72.57;50.15;;;14.70;68.20;;;;;;4980675;28;90561;-69
2023/03/17 06:00:20;;;;;;;70.60;49.90;;;14.70;68.30;;;;;;4972885;28;90934;-68
2023/03/17 06:02:46;;;;;;;71.38;49.78;;;14.70;68.10;;;;;;4984865;28;90369;-68
2023/03/17 06:05:12;;;;;;;69.78;49.85;;;14.70;68.70;;;;;;4975867;28;92096;-68
2023/03/17 06:07:37;;;;;;;70.68;50.42;;;14.70;68.30;;;;;;4982442;28;90810;-68
2023/03/17 06:10:04;;;;;;;71.40;49.83;;;14.70;68.20;;;;;;4973436;28;90340;-68
2023/03/17 06:12:29;;;;;;;71.95;50.25;;;14.70;68.40;;;;;;4979845;28;90611;-68
2023/03/17 06:14:55;;;;;;;72.13;50.40;;;14.70;68.50;;;;;;4981488;28;93113;-68
2023/03/17 06:17:21;;;;;;;71.97;49.72;;;14.70;68.50;;;;;;4978128;28;92613;-69
2023/03/17 06:19:46;;;;;;;73.20;50.08;;;14.60;68.70;;;;;;4986971;28;89537;-68
2023/03/17 06:22:12;;;;;;;73.18;50.20;;;14.60;68.70;;;;;;4977308;28;92575;-68
2023/03/17 06:24:38;;;;;;;73.18;50.22;;;14.60;68.70;;;;;;4978026;28;90201;-69
2023/03/17 06:27:03;;;;;;;71.32;50.17;;;14.60;68.60;;;;;;4980752;28;90081;-68
2023/03/17 06:29:29;;;;;;;71.95;50.35;;;14.60;68.80;;;;;;4982561;28;90768;-68
2023/03/17 06:31:55;;;;;;;76.60;50.70;;;14.60;68.70;;;;;;4976402;28;95143;-69
2023/03/17 06:34:22;;;;;;;72.60;50.85;;;14.60;68.80;;;;;;4980203;28;90854;-68
2023/03/17 06:36:48;;;;;;;73.60;50.78;;;14.60;68.40;;;;;;4981643;28;90264;-68
2023/03/17 06:39:15;;;;;;;76.00;50.53;;;14.60;68.40;;;;;;4980291;28;90721;-68
2023/03/17 06:41:41;;;;;;;74.72;50.22;;;14.60;68.50;;;;;;4977217;28;90418;-68
2023/03/17 06:44:07;;;;;;;72.20;50.38;;;14.60;68.60;;;;;;4987313;28;90913;-68
2023/03/17 06:46:34;;;;;;;74.00;51.00;;;14.60;68.60;;;;;;4979855;28;90057;-68
2023/03/17 06:49:00;;;;;;;73.10;50.65;;;14.60;68.60;;;;;;4979532;28;90600;-68
2023/03/17 06:51:26;;;;;;;74.22;50.90;;;14.60;68.60;;;;;;4978537;28;90300;-67
2023/03/17 06:53:52;;;;;;;78.07;50.83;;;14.60;68.70;;;;;;4975648;28;91472;-67
2023/03/17 06:56:18;;;;;;;72.30;50.90;;;14.50;68.80;;;;;;4975975;28;92068;-68
2023/03/17 06:58:45;;;;;;;76.20;51.28;;;14.60;68.90;;;;;;4977160;28;90077;-68
2023/03/17 07:01:13;;;;;;;75.88;51.90;;;14.60;69.00;;;;;;4976674;28;90012;-68
2023/03/17 07:03:39;;;;;;;79.13;52.53;;;14.60;68.90;;;;;;4986218;28;89898;-68
2023/03/17 07:06:05;;;;;;;78.10;51.25;;;14.60;69.10;;;;;;4982844;28;89822;-68
2023/03/17 07:08:31;;;;;;;77.65;51.85;;;14.60;69.00;;;;;;4980281;28;91637;-68
2023/03/17 07:10:57;;;;;;;75.63;51.10;;;14.60;69.00;;;;;;4983986;28;88947;-67
2023/03/17 07:13:23;;;;;;;76.85;52.25;;;14.60;69.20;;;;;;4972866;28;93943;-68
2023/03/17 07:15:49;;;;;;;81.53;52.45;;;14.60;69.10;;;;;;4979825;28;90375;-68
2023/03/17 07:18:15;;;;;;;84.43;52.65;;;14.60;69.00;;;;;;4981829;28;91341;-67
2023/03/17 07:20:42;;;;;;;80.55;51.95;;;14.60;69.20;;;;;;4987112;28;92387;-68
2023/03/17 07:23:15;;;;;;;78.45;52.13;;;14.70;69.20;;;;;;4985645;28;89821;-68
2023/03/17 07:25:42;;;;;;;82.50;52.50;;;14.70;69.00;;;;;;4981897;28;89667;-68
2023/03/17 07:28:08;;;;;;;81.28;52.15;;;14.70;69.00;;;;;;4992889;27;90400;-68
2023/03/17 07:30:34;;;;;;;76.63;52.10;;;14.70;69.00;;;;;;4983568;28;91913;-67
2023/03/17 07:33:00;;;;;;;77.68;52.33;;;14.70;69.00;;;;;;4982077;28;95649;-68
2023/03/17 07:35:27;;;;;;;77.40;52.05;;;14.70;68.90;;;;;;4982483;28;89476;-67
2023/03/17 07:37:53;;;;;;;80.45;52.58;;;14.70;69.20;;;;;;4986607;28;90788;-67
2023/03/17 07:40:19;;;;;;;83.32;52.72;;;14.70;69.00;;;;;;4988345;28;89517;-67
2023/03/17 07:42:45;;;;;;;80.05;52.42;;;14.80;68.80;;;;;;4979142;28;91271;-68
2023/03/17 07:45:11;;;;;;;76.15;52.38;;;14.80;68.70;;;;;;4982617;28;91473;-67
2023/03/17 07:47:38;;;;;;;80.43;52.55;;;14.80;68.70;;;;;;4979513;28;91813;-67
2023/03/17 07:50:04;;;;;;;82.13;52.92;;;14.90;68.70;;;;;;4982753;28;89629;-67
2023/03/17 07:52:30;;;;;;;82.60;52.95;;;14.90;68.70;;;;;;4984710;28;92323;-67
2023/03/17 07:54:57;;;;;;;83.38;52.58;;;14.90;68.70;;;;;;4981544;28;91841;-67
2023/03/17 07:57:23;;;;;;;82.47;53.22;;;14.90;68.60;;;;;;4986634;28;91387;-67
2023/03/17 07:59:49;;;;;;;82.30;53.35;;;15.00;68.30;;;;;;4981484;28;90569;-67
2023/03/17 08:02:16;;;;;;;80.97;52.95;;;15.00;68.30;;;;;;4979359;28;89780;-64
2023/03/17 08:04:43;;;;;;;81.65;54.28;;;15.00;68.40;;;;;;4979981;28;91410;-64
2023/03/17 08:07:09;;;;;;;79.20;52.47;;;15.10;68.20;;;;;;4984765;28;92791;-64
2023/03/17 08:09:38;;;;;;;84.40;53.33;;;15.20;67.60;;;;;;4988069;28;90080;-64
2023/03/17 08:12:04;;;;;;;80.68;53.28;;;15.20;67.50;;;;;;4979098;28;91001;-60
2023/03/17 08:14:30;;;;;;;79.78;52.67;;;15.30;67.60;;;;;;4979015;28;90175;-61
2023/03/17 08:16:56;;;;;;;82.63;53.28;;;15.30;67.40;;;;;;4991494;28;90534;-64
2023/03/17 08:19:23;;;;;;;86.68;53.35;;;15.50;68.30;;;;;;4987229;28;90339;-77
2023/03/17 08:21:49;;;;;;;83.53;53.10;;;15.50;67.90;;;;;;4981461;28;90490;-63
2023/03/17 08:24:15;;;;;;;84.28;53.97;;;15.50;67.90;;;;;;4984506;28;93100;-67
2023/03/17 08:26:41;;;;;;;83.35;53.25;;;15.60;67.90;;;;;;4987535;28;90427;-64
2023/03/17 08:29:07;;;;;;;83.70;53.67;;;15.60;68.30;;;;;;4980459;28;90823;-63
2023/03/17 08:31:32;;;;;;;80.47;53.40;;;15.50;68.00;;;;;;4964583;28;92158;-66
2023/03/17 08:33:59;;;;;;;77.85;52.70;;;15.50;68.10;;;;;;4979105;28;91647;-64
2023/03/17 08:36:25;;;;;;;81.50;52.40;;;15.60;68.20;;;;;;4990502;28;90120;-57
2023/03/17 08:38:51;;;;;;;80.35;53.00;;;15.80;67.80;;;;;;4973764;28;90359;-65
2023/03/17 08:41:19;;;;;;;81.20;53.05;;;15.80;67.10;;;;;;4980141;27;90517;-65
2023/03/17 08:43:46;;;;;;;82.03;53.10;;;15.80;66.80;;;;;;4978326;28;95062;-65
2023/03/17 08:46:25;;;;;;;81.63;53.42;;;15.80;66.50;;;;;;4977799;28;90915;-64
2023/03/17 08:48:53;;;;;;;83.05;53.35;;;15.90;66.50;;;;;;4970397;28;96180;-64
2023/03/17 08:51:21;;;;;;;77.93;51.78;;;15.90;66.70;;;;;;4977004;28;91349;-68
2023/03/17 08:53:47;;;;;;;78.07;52.47;;;16.00;66.10;;;;;;4984919;28;93254;-67
2023/03/17 08:56:14;;;;;;;82.82;52.42;;;16.00;65.60;;;;;;4981615;28;94539;-68
2023/03/17 08:58:42;;;;;;;84.90;52.97;;;16.10;65.20;;;;;;4977342;28;91463;-65
2023/03/17 09:01:09;;;;;;;82.50;52.67;;;16.10;65.60;;;;;;4982328;28;90612;-67
2023/03/17 09:03:35;;;;;;;80.35;52.78;;;16.10;65.00;;;;;;4986389;28;91222;-67
2023/03/17 09:06:04;;;;;;;78.00;52.22;;;16.10;64.90;;;;;;4984992;28;90221;-66
2023/03/17 09:08:31;;;;;;;80.88;52.97;;;16.10;64.60;;;;;;4981270;28;93083;-67
2023/03/17 09:10:57;;;;;;;78.63;52.53;;;16.20;64.30;;;;;;4995773;27;92796;-67
2023/03/17 09:13:23;;;;;;;77.68;52.45;;;16.10;64.30;;;;;;4982343;28;90955;-66
2023/03/17 09:15:49;;;;;;;80.15;52.20;;;16.20;64.20;;;;;;4979111;28;90275;-67
2023/03/17 09:18:15;;;;;;;79.97;51.95;;;16.10;64.00;;;;;;4985894;28;93144;-67
2023/03/17 09:20:41;;;;;;;85.40;53.08;;;16.20;64.00;;;;;;4992699;27;92017;-67
2023/03/17 09:23:08;;;;;;;82.25;52.67;;;16.10;64.00;;;;;;4982702;28;90912;-67
2023/03/17 09:25:38;;;;;;;82.53;53.08;;;16.20;63.80;;;;;;4982154;28;95913;-67
2023/03/17 09:28:06;;;;;;;77.53;51.95;;;16.10;63.80;;;;;;4974782;28;91876;-67
2023/03/17 09:30:32;;;;;;;82.38;52.65;;;16.10;64.00;;;;;;4981766;28;90264;-67
2023/03/17 09:32:59;;;;;;;80.20;52.42;;;16.10;63.70;;;;;;4986943;28;89938;-67
2023/03/17 09:35:26;;;;;;;78.18;52.28;;;16.20;63.70;;;;;;4981710;28;93599;-59
2023/03/17 09:37:53;;;;;;;79.30;52.72;;;16.20;64.00;;;;;;4973723;28;90363;-65
2023/03/17 09:40:26;;;;;;;80.22;52.13;;;16.20;64.70;;;;;;4972256;28;91054;-65
2023/03/17 09:43:10;;;;;;;80.97;52.22;;;16.20;64.40;;;;;;4935296;28;92875;-65
2023/03/17 09:45:40;;;;;;;77.03;52.15;;;16.20;64.20;;;;;;4952050;28;93080;-67
2023/03/17 09:48:40;;;;;;;80.88;52.45;;;16.20;64.20;;;;;;4954758;28;98121;-65
2023/03/17 09:51:11;;;;;;;80.43;52.67;;;16.20;64.20;;;;;;4975879;28;91021;-64
2023/03/17 09:54:00;;;;;;;78.15;52.50;;;16.20;64.10;;;;;;4971889;28;90203;-63
2023/03/17 09:56:29;;;;;;;78.72;51.95;;;16.30;64.20;;;;;;4971163;28;90642;-65
2023/03/17 09:59:04;;;;;;;83.60;52.95;;;16.30;64.00;;;;;;4986144;28;95555;-68
2023/03/17 10:01:31;;;;;;;78.18;52.45;;;16.30;63.80;;;;;;4975140;28;90890;-68
2023/03/17 10:03:57;;;;;;;81.53;52.70;;;16.40;64.10;;;;;;4970839;28;89862;-68
2023/03/17 10:06:37;;;;;;;80.57;52.92;;;16.40;64.40;;;;;;4971894;28;92616;-66
2023/03/17 10:09:15;;;;;;;77.82;51.92;;;16.30;64.20;;;;;;4974015;28;91666;-66
2023/03/17 10:11:42;;;;;;;85.55;52.30;;;16.30;64.00;;;;;;4980888;28;92048;-64
2023/03/17 10:14:39;;;;;;;79.90;52.50;;;16.30;64.10;;;;;;4979486;28;93704;-69
2023/03/17 10:17:19;;;;;;;78.78;52.28;;;16.30;64.10;;;;;;4988547;28;90006;-68
2023/03/17 10:20:25;;;;;;;79.55;52.72;;;16.30;64.30;;;;;;4977825;28;92014;-68
2023/03/17 10:22:56;;;;;;;78.13;52.67;;;16.30;64.20;;;;;;4974298;28;90733;-68
2023/03/17 10:25:34;;;;;;;84.57;52.58;;;16.30;64.30;;;;;;4968047;28;91690;-69
2023/03/17 10:28:15;;;;;;;79.72;52.35;;;16.30;63.90;;;;;;4980490;28;91463;-69
2023/03/17 10:30:43;;;;;;;76.43;51.87;;;16.30;63.70;;;;;;4971266;28;89966;-68
2023/03/17 10:33:11;;;;;;;79.78;52.10;;;16.30;64.30;;;;;;4989641;27;91798;-70
2023/03/17 10:35:39;;;;;;;77.93;52.90;;;16.20;65.10;;;;;;4962179;28;94849;-69
2023/03/17 10:38:25;;;;;;;78.43;52.33;;;16.20;65.20;;;;;;4975078;28;92434;-68
2023/03/17 10:41:07;;;;;;;79.20;52.75;;;16.30;65.20;;;;;;4968285;28;91771;-64
2023/03/17 10:43:44;;;;;;;81.75;52.35;;;16.30;65.00;;;;;;4974637;28;92459;-61
2023/03/17 10:46:20;;;;;;;81.85;52.60;;;16.30;64.90;;;;;;4968410;28;90279;-63
2023/03/17 10:48:53;;;;;;;80.03;52.45;;;16.40;64.90;;;;;;4984265;28;89876;-58
2023/03/17 10:51:35;;;;;;;79.07;52.33;;;16.40;64.40;;;;;;4965022;28;90792;-64
2023/03/17 10:54:10;;;;;;;79.15;52.75;;;16.40;64.40;;;;;;4976225;28;90164;-64
2023/03/17 10:56:40;;;;;;;82.07;52.53;;;16.40;64.30;;;;;;4978217;28;90414;-66
2023/03/17 10:59:26;;;;;;;80.15;52.10;;;16.40;64.60;;;;;;4981727;28;90227;-61
2023/03/17 11:01:56;;;;;;;82.97;52.55;;;16.40;64.50;;;;;;4964574;28;95552;-63
2023/03/17 11:04:31;;;;;;;86.33;52.70;;;16.40;64.70;;;;;;4984209;28;92466;-65
2023/03/17 11:07:08;;;;;;;83.95;52.72;;;16.40;64.90;;;;;;4977882;28;90244;-71
2023/03/17 11:09:35;;;;;;;79.60;52.50;;;16.40;64.90;;;;;;4973283;28;90048;-68
2023/03/17 11:12:04;;;;;;;79.65;52.17;;;16.40;65.00;;;;;;4974552;28;89796;-71
2023/03/17 11:14:30;;;;;;;84.00;52.78;;;16.50;64.80;;;;;;4970575;28;92949;-69
2023/03/17 11:17:02;;;;;;;85.30;52.53;;;16.50;64.80;;;;;;4976164;28;90000;-69
2023/03/17 11:19:59;;;;;;;83.10;53.03;;;16.50;64.90;;;;;;4975331;28;89451;-66
2023/03/17 11:22:38;;;;;;;82.57;53.28;;;16.50;64.80;;;;;;4977372;28;91674;-68
2023/03/17 11:25:18;;;;;;;81.20;52.22;;;16.50;64.90;;;;;;4988450;28;90296;-67
2023/03/17 11:27:52;;;;;;;79.07;52.72;;;16.60;65.00;;;;;;4974304;28;92411;-68
2023/03/17 11:30:21;;;;;;;80.32;52.58;;;16.50;65.00;;;;;;4966179;28;91947;-65
2023/03/17 11:32:56;;;;;;;82.15;53.15;;;16.60;65.00;;;;;;4973692;28;90711;-64
2023/03/17 11:36:02;;;;;;;80.85;52.95;;;16.60;64.90;;;;;;4963127;28;91059;-68
2023/03/17 11:38:33;;;;;;;80.50;52.97;;;16.70;64.90;;;;;;4974923;28;89827;-68
2023/03/17 11:41:40;;;;;;;81.38;52.88;;;16.70;64.90;;;;;;4972143;28;91517;-63
2023/03/17 11:44:22;;;;;;;83.63;52.92;;;16.80;64.70;;;;;;4973655;28;89939;-62
2023/03/17 11:47:36;;;;;;;81.90;53.23;;;16.80;64.30;;;;;;4973650;28;92974;-64
2023/03/17 11:50:49;;;;;;;85.63;52.90;;;16.80;64.20;;;;;;4977948;28;90239;-60
2023/03/17 11:53:26;;;;;;;81.53;52.58;;;16.80;64.20;;;;;;4981891;28;91605;-64
2023/03/17 11:56:24;;;;;;;80.63;52.72;;;16.80;64.00;;;;;;4977569;28;89841;-67
2023/03/17 11:58:56;;;;;;;81.28;52.50;;;16.90;64.70;;;;;;4979463;28;91544;-76
2023/03/17 12:01:27;;;;;;;89.35;52.85;;;17.20;64.40;;;;;;4970670;28;90644;-62
2023/03/17 12:04:12;;;;;;;84.35;53.25;;;17.20;64.70;;;;;;4983589;28;91759;-62
2023/03/17 12:06:49;;;;;;;81.05;52.47;;;17.20;64.30;;;;;;4964822;28;91753;-58
2023/03/17 12:09:33;;;;;;;79.63;53.05;;;17.10;63.60;;;;;;4963963;28;90559;-59
2023/03/17 12:12:01;;;;;;;81.60;52.83;;;17.10;63.50;;;;;;4958720;28;90797;-64
2023/03/17 12:14:29;;;;;;;80.15;52.38;;;17.10;63.80;;;;;;4952033;28;91795;-63
2023/03/17 12:17:08;;;;;;;94.30;52.90;;;17.10;64.00;;;;;;4948119;28;91571;-61
2023/03/17 12:19:43;;;;;;;84.22;53.10;;;17.20;67.50;;;;;;4953863;28;91606;-64
2023/03/17 12:22:45;;;;;;;85.72;52.75;;;17.20;68.10;;;;;;4956561;28;90837;-62
2023/03/17 12:25:24;;;;;;;84.75;52.63;;;17.10;67.90;;;;;;4949101;28;91615;-62
2023/03/17 12:28:19;;;;;;;81.07;52.80;;;17.20;69.10;;;;;;4955192;28;92524;-63
2023/03/17 12:31:05;;;;;;;83.82;52.15;;;17.10;69.70;;;;;;4950040;28;94149;-62
2023/03/17 12:34:04;;;;;;;86.65;52.58;;;17.20;68.30;;;;;;4946816;28;92051;-62
2023/03/17 12:36:30;;;;;;;79.93;52.25;;;17.30;67.40;;;;;;4945140;28;90862;-63
2023/03/17 12:39:04;;;;;;;80.13;52.75;;;17.30;67.40;;;;;;4950681;28;93349;-63